createdAt,value
2023-02-18T00:00:49.206Z,973.04
2023-02-18T00:01:49.185Z,973.03
2023-02-18T00:02:50.909Z,973.07
2023-02-18T00:05:49.272Z,973.05
2023-02-18T00:06:49.286Z,973.09
2023-02-18T00:07:49.267Z,973.1
2023-02-18T00:08:49.371Z,973.12
2023-02-18T00:09:49.203Z,973.11
2023-02-18T00:10:49.181Z,973.15
2023-02-18T00:11:49.139Z,973.17
2023-02-18T00:12:49.208Z,973.14
2023-02-18T00:13:49.081Z,973.13
2023-02-18T00:14:49.078Z,973.14
2023-02-18T00:15:49.249Z,973.16
2023-02-18T00:16:49.136Z,973.11
2023-02-18T00:17:49.114Z,973.09
2023-02-18T00:18:49.181Z,973.07
2023-02-18T00:19:49.118Z,973.03
2023-02-18T00:20:49.204Z,973.04
2023-02-18T00:21:49.131Z,973.05
2023-02-18T00:22:49.103Z,972.97
2023-02-18T00:23:49.213Z,972.98
2023-02-18T00:24:49.135Z,972.97
2023-02-18T00:25:49.234Z,972.94
2023-02-18T00:26:49.334Z,972.9
2023-02-18T00:28:49.189Z,972.84
2023-02-18T00:29:49.120Z,972.87
2023-02-18T00:31:49.309Z,972.84
2023-02-18T00:32:49.142Z,972.82
2023-02-18T00:33:49.320Z,972.83
2023-02-18T00:34:49.155Z,972.81
2023-02-18T00:35:49.269Z,972.82
2023-02-18T00:36:49.263Z,972.8
2023-02-18T00:37:49.290Z,972.79
2023-02-18T00:38:49.288Z,972.82
2023-02-18T00:39:49.188Z,972.79
2023-02-18T00:41:49.230Z,972.81
2023-02-18T00:42:49.265Z,972.79
2023-02-18T00:43:49.185Z,972.81
2023-02-18T00:44:49.172Z,972.77
2023-02-18T00:45:49.327Z,972.75
2023-02-18T00:47:49.375Z,972.76
2023-02-18T00:49:49.319Z,972.75
2023-02-18T00:51:49.380Z,972.69
2023-02-18T00:52:49.249Z,972.73
2023-02-18T00:53:49.162Z,972.74
2023-02-18T00:54:49.245Z,972.73
2023-02-18T00:55:49.364Z,972.71
2023-02-18T00:56:49.364Z,972.73
2023-02-18T00:58:49.361Z,972.7
2023-02-18T01:00:49.312Z,972.71
2023-02-18T01:01:49.396Z,972.72
2023-02-18T01:03:49.378Z,972.69
2023-02-18T01:04:49.403Z,972.71
2023-02-18T01:05:49.387Z,972.7
2023-02-18T01:06:49.399Z,972.73
2023-02-18T01:07:49.399Z,972.71
2023-02-18T01:08:49.213Z,972.7
2023-02-18T01:09:49.307Z,972.66
2023-02-18T01:10:49.443Z,972.65
2023-02-18T01:11:49.413Z,972.67
2023-02-18T01:12:49.398Z,972.66
2023-02-18T01:13:49.265Z,972.69
2023-02-18T01:14:49.344Z,972.65
2023-02-18T01:16:49.445Z,972.59
2023-02-18T01:17:49.447Z,972.61
2023-02-18T01:19:49.432Z,972.59
2023-02-18T01:20:49.326Z,972.56
2023-02-18T01:22:49.457Z,972.53
2023-02-18T01:23:49.442Z,972.54
2023-02-18T01:24:49.343Z,972.52
2023-02-18T01:25:49.484Z,972.5
2023-02-18T01:26:49.324Z,972.51
2023-02-18T01:27:49.373Z,972.46
2023-02-18T01:28:49.368Z,972.47
2023-02-18T01:29:50.380Z,972.43
2023-02-18T01:30:51.309Z,972.41
2023-02-18T01:31:49.541Z,972.45
2023-02-18T01:32:49.516Z,972.4
2023-02-18T01:33:49.493Z,972.38
2023-02-18T01:34:49.365Z,972.33
2023-02-18T01:37:49.421Z,972.34
2023-02-18T01:38:49.434Z,972.26
2023-02-18T01:39:49.465Z,972.29
2023-02-18T01:40:49.388Z,972.28
2023-02-18T01:42:49.408Z,972.27
2023-02-18T01:43:49.529Z,972.26
2023-02-18T01:44:49.418Z,972.25
2023-02-18T01:46:49.518Z,972.21
2023-02-18T01:47:49.474Z,972.18
2023-02-18T01:49:49.407Z,972.17
2023-02-18T01:50:49.448Z,972.16
2023-02-18T01:51:49.424Z,972.12
2023-02-18T01:52:49.435Z,972.14
2023-02-18T01:54:49.453Z,972.17
2023-02-18T01:55:49.490Z,972.2
2023-02-18T01:57:49.413Z,972.22
2023-02-18T01:58:49.492Z,972.23
2023-02-18T01:59:49.434Z,972.22
2023-02-18T02:00:49.493Z,972.23
2023-02-18T02:02:49.473Z,972.22
2023-02-18T02:04:49.416Z,972.24
2023-02-18T02:05:49.474Z,972.21
2023-02-18T02:06:49.479Z,972.24
2023-02-18T02:07:49.532Z,972.22
2023-02-18T02:08:49.383Z,972.25
2023-02-18T02:09:49.550Z,972.2
2023-02-18T02:10:49.427Z,972.19
2023-02-18T02:11:49.559Z,972.18
2023-02-18T02:14:49.529Z,972.14
2023-02-18T02:16:49.490Z,972.16
2023-02-18T02:17:49.557Z,972.2
2023-02-18T02:18:49.554Z,972.21
2023-02-18T02:19:49.391Z,972.2
2023-02-18T02:20:49.557Z,972.24
2023-02-18T02:22:49.510Z,972.2
2023-02-18T02:24:49.541Z,972.16
2023-02-18T02:25:49.496Z,972.19
2023-02-18T02:26:49.541Z,972.18
2023-02-18T02:27:49.465Z,972.17
2023-02-18T02:30:49.537Z,972.13
2023-02-18T02:31:49.632Z,972.14
2023-02-18T02:32:49.502Z,972.11
2023-02-18T02:33:49.538Z,972.12
2023-02-18T02:34:49.533Z,972.09
2023-02-18T02:35:49.545Z,972.04
2023-02-18T02:36:49.528Z,972.05
2023-02-18T02:40:49.551Z,972.06
2023-02-18T02:41:49.573Z,972
2023-02-18T02:43:49.637Z,971.98
2023-02-18T02:44:49.445Z,971.97
2023-02-18T02:45:49.563Z,971.94
2023-02-18T02:46:49.453Z,971.96
2023-02-18T02:47:49.626Z,971.95
2023-02-18T02:48:49.638Z,971.91
2023-02-18T02:49:49.643Z,971.9
2023-02-18T02:50:49.563Z,971.89
2023-02-18T02:52:49.648Z,971.86
2023-02-18T02:53:49.556Z,971.87
2023-02-18T02:54:49.606Z,971.81
2023-02-18T02:56:49.642Z,971.8
2023-02-18T02:57:49.566Z,971.79
2023-02-18T02:58:49.636Z,971.75
2023-02-18T03:00:49.568Z,971.77
2023-02-18T03:01:49.560Z,971.73
2023-02-18T03:03:49.596Z,971.69
2023-02-18T03:05:49.594Z,971.64
2023-02-18T03:06:49.592Z,971.68
2023-02-18T03:07:49.585Z,971.66
2023-02-18T03:08:49.649Z,971.64
2023-02-18T03:09:49.611Z,971.63
2023-02-18T03:10:49.692Z,971.67
2023-02-18T03:11:49.656Z,971.64
2023-02-18T03:13:49.641Z,971.65
2023-02-18T03:14:49.672Z,971.6
2023-02-18T03:16:49.661Z,971.61
2023-02-18T03:17:49.732Z,971.58
2023-02-18T03:18:49.595Z,971.6
2023-02-18T03:19:49.797Z,971.56
2023-02-18T03:21:49.690Z,971.59
2023-02-18T03:22:49.702Z,971.55
2023-02-18T03:23:49.704Z,971.54
2023-02-18T03:24:49.668Z,971.57
2023-02-18T03:25:49.709Z,971.58
2023-02-18T03:26:49.590Z,971.57
2023-02-18T03:27:49.784Z,971.55
2023-02-18T03:28:49.716Z,971.58
2023-02-18T03:29:49.671Z,971.57
2023-02-18T03:30:49.654Z,971.58
2023-02-18T03:31:49.647Z,971.62
2023-02-18T03:32:49.674Z,971.63
2023-02-18T03:33:49.630Z,971.65
2023-02-18T03:34:49.789Z,971.68
2023-02-18T03:35:49.620Z,971.67
2023-02-18T03:36:49.652Z,971.69
2023-02-18T03:38:49.611Z,971.68
2023-02-18T03:39:49.712Z,971.69
2023-02-18T03:41:49.613Z,971.66
2023-02-18T03:42:49.684Z,971.62
2023-02-18T03:43:49.751Z,971.58
2023-02-18T03:44:49.724Z,971.61
2023-02-18T03:45:49.686Z,971.57
2023-02-18T03:46:49.776Z,971.58
2023-02-18T03:47:49.688Z,971.53
2023-02-18T03:48:49.688Z,971.56
2023-02-18T03:49:49.596Z,971.57
2023-02-18T03:50:49.831Z,971.6
2023-02-18T03:51:49.799Z,971.59
2023-02-18T03:52:49.727Z,971.55
2023-02-18T03:53:49.743Z,971.57
2023-02-18T03:55:49.718Z,971.62
2023-02-18T03:56:49.801Z,971.64
2023-02-18T03:57:49.693Z,971.62
2023-02-18T03:58:49.643Z,971.61
2023-02-18T03:59:49.760Z,971.67
2023-02-18T04:00:49.820Z,971.66
2023-02-18T04:05:49.730Z,971.68
2023-02-18T04:06:49.738Z,971.62
2023-02-18T04:07:49.745Z,971.61
2023-02-18T04:08:49.825Z,971.57
2023-02-18T04:09:49.745Z,971.58
2023-02-18T04:10:49.796Z,971.59
2023-02-18T04:12:49.723Z,971.58
2023-02-18T04:13:49.723Z,971.57
2023-02-18T04:14:49.841Z,971.58
2023-02-18T04:15:49.716Z,971.61
2023-02-18T04:16:49.821Z,971.59
2023-02-18T04:18:49.736Z,971.6
2023-02-18T04:19:49.775Z,971.61
2023-02-18T04:20:49.876Z,971.6
2023-02-18T04:21:49.744Z,971.59
2023-02-18T04:22:49.782Z,971.62
2023-02-18T04:23:49.777Z,971.64
2023-02-18T04:26:49.858Z,971.65
2023-02-18T04:28:49.929Z,971.66
2023-02-18T04:29:49.773Z,971.67
2023-02-18T04:30:49.934Z,971.68
2023-02-18T04:31:49.930Z,971.64
2023-02-18T04:33:49.783Z,971.62
2023-02-18T04:35:49.760Z,971.58
2023-02-18T04:37:49.824Z,971.54
2023-02-18T04:38:49.846Z,971.58
2023-02-18T04:39:49.821Z,971.56
2023-02-18T04:40:49.899Z,971.6
2023-02-18T04:41:49.850Z,971.59
2023-02-18T04:42:49.754Z,971.55
2023-02-18T04:43:49.897Z,971.56
2023-02-18T04:44:49.919Z,971.54
2023-02-18T04:45:49.972Z,971.53
2023-02-18T04:46:49.804Z,971.51
2023-02-18T04:47:49.814Z,971.5
2023-02-18T04:48:49.830Z,971.49
2023-02-18T04:49:49.909Z,971.47
2023-02-18T04:51:49.805Z,971.48
2023-02-18T04:52:49.910Z,971.47
2023-02-18T04:53:49.988Z,971.44
2023-02-18T04:54:49.827Z,971.48
2023-02-18T04:55:49.891Z,971.49
2023-02-18T04:58:49.940Z,971.48
2023-02-18T04:59:49.849Z,971.49
2023-02-18T05:00:49.860Z,971.52
2023-02-18T05:01:49.810Z,971.54
2023-02-18T05:02:49.900Z,971.57
2023-02-18T05:03:50.017Z,971.5
2023-02-18T05:04:49.905Z,971.56
2023-02-18T05:05:49.836Z,971.55
2023-02-18T05:06:49.814Z,971.57
2023-02-18T05:07:49.776Z,971.54
2023-02-18T05:08:49.930Z,971.52
2023-02-18T05:09:49.859Z,971.5
2023-02-18T05:10:49.859Z,971.49
2023-02-18T05:11:49.870Z,971.47
2023-02-18T05:12:49.998Z,971.42
2023-02-18T05:13:49.958Z,971.44
2023-02-18T05:14:49.834Z,971.43
2023-02-18T05:15:49.871Z,971.42
2023-02-18T05:16:49.973Z,971.43
2023-02-18T05:17:49.890Z,971.44
2023-02-18T05:18:49.914Z,971.43
2023-02-18T05:20:49.924Z,971.41
2023-02-18T05:21:49.949Z,971.43
2023-02-18T05:22:49.935Z,971.4
2023-02-18T05:23:49.971Z,971.44
2023-02-18T05:25:49.993Z,971.46
2023-02-18T05:26:49.932Z,971.44
2023-02-18T05:30:50.017Z,971.43
2023-02-18T05:31:49.978Z,971.38
2023-02-18T05:32:49.941Z,971.4
2023-02-18T05:34:49.946Z,971.39
2023-02-18T05:35:49.984Z,971.45
2023-02-18T05:36:50.036Z,971.44
2023-02-18T05:37:49.999Z,971.46
2023-02-18T05:38:49.858Z,971.47
2023-02-18T05:39:50.092Z,971.48
2023-02-18T05:40:49.994Z,971.5
2023-02-18T05:41:49.972Z,971.43
2023-02-18T05:42:49.953Z,971.44
2023-02-18T05:43:50.003Z,971.45
2023-02-18T05:44:50.090Z,971.48
2023-02-18T05:45:49.946Z,971.49
2023-02-18T05:46:49.981Z,971.5
2023-02-18T05:47:50.066Z,971.49
2023-02-18T05:48:50.018Z,971.51
2023-02-18T05:49:49.982Z,971.47
2023-02-18T05:50:50.042Z,971.46
2023-02-18T05:51:49.896Z,971.53
2023-02-18T05:52:49.954Z,971.51
2023-02-18T05:53:50.035Z,971.48
2023-02-18T05:55:49.932Z,971.44
2023-02-18T05:56:50.021Z,971.43
2023-02-18T05:57:50.026Z,971.42
2023-02-18T05:58:50.105Z,971.41
2023-02-18T06:00:49.940Z,971.39
2023-02-18T06:01:49.971Z,971.4
2023-02-18T06:02:50.078Z,971.43
2023-02-18T06:03:49.928Z,971.39
2023-02-18T06:04:50.037Z,971.43
2023-02-18T06:05:49.999Z,971.44
2023-02-18T06:07:50.019Z,971.45
2023-02-18T06:08:49.976Z,971.44
2023-02-18T06:09:50.034Z,971.46
2023-02-18T06:10:50.046Z,971.47
2023-02-18T06:11:50.040Z,971.45
2023-02-18T06:12:50.151Z,971.44
2023-02-18T06:14:50.045Z,971.48
2023-02-18T06:15:50.040Z,971.45
2023-02-18T06:16:50.158Z,971.48
2023-02-18T06:17:50.152Z,971.52
2023-02-18T06:18:50.062Z,971.51
2023-02-18T06:19:50.178Z,971.52
2023-02-18T06:20:50.140Z,971.53
2023-02-18T06:21:50.076Z,971.54
2023-02-18T06:22:50.166Z,971.58
2023-02-18T06:23:50.138Z,971.57
2023-02-18T06:24:50.314Z,971.55
2023-02-18T06:25:50.079Z,971.6
2023-02-18T06:26:50.100Z,971.56
2023-02-18T06:27:50.064Z,971.58
2023-02-18T06:28:50.188Z,971.6
2023-02-18T06:29:50.115Z,971.55
2023-02-18T06:30:50.139Z,971.56
2023-02-18T06:31:50.143Z,971.58
2023-02-18T06:32:50.116Z,971.54
2023-02-18T06:33:50.098Z,971.55
2023-02-18T06:34:50.091Z,971.54
2023-02-18T06:35:50.044Z,971.55
2023-02-18T06:36:50.115Z,971.57
2023-02-18T06:38:50.153Z,971.58
2023-02-18T06:39:50.277Z,971.59
2023-02-18T06:40:50.086Z,971.55
2023-02-18T06:42:50.074Z,971.5
2023-02-18T06:43:50.124Z,971.53
2023-02-18T06:44:51.202Z,971.5
2023-02-18T06:45:50.079Z,971.48
2023-02-18T06:46:50.278Z,971.46
2023-02-18T06:49:50.151Z,971.51
2023-02-18T06:50:50.283Z,971.47
2023-02-18T06:51:50.169Z,971.48
2023-02-18T06:52:50.106Z,971.41
2023-02-18T06:53:50.122Z,971.45
2023-02-18T06:54:50.084Z,971.44
2023-02-18T06:55:50.072Z,971.48
2023-02-18T06:56:50.082Z,971.47
2023-02-18T06:57:50.180Z,971.5
2023-02-18T06:58:50.141Z,971.48
2023-02-18T06:59:50.197Z,971.46
2023-02-18T07:00:50.130Z,971.47
2023-02-18T07:01:50.152Z,971.46
2023-02-18T07:02:50.154Z,971.47
2023-02-18T07:03:50.475Z,971.48
2023-02-18T07:04:50.209Z,971.47
2023-02-18T07:06:50.286Z,971.45
2023-02-18T07:07:50.321Z,971.48
2023-02-18T07:08:50.193Z,971.43
2023-02-18T07:09:50.229Z,971.47
2023-02-18T07:10:50.181Z,971.46
2023-02-18T07:11:50.149Z,971.47
2023-02-18T07:12:50.237Z,971.46
2023-02-18T07:14:50.177Z,971.49
2023-02-18T07:15:50.179Z,971.55
2023-02-18T07:16:50.245Z,971.54
2023-02-18T07:17:50.206Z,971.55
2023-02-18T07:19:50.217Z,971.56
2023-02-18T07:22:50.374Z,971.57
2023-02-18T07:23:50.328Z,971.55
2023-02-18T07:24:50.206Z,971.52
2023-02-18T07:25:50.258Z,971.51
2023-02-18T07:26:50.307Z,971.53
2023-02-18T07:27:50.269Z,971.55
2023-02-18T07:28:50.210Z,971.5
2023-02-18T07:29:50.220Z,971.52
2023-02-18T07:31:50.431Z,971.51
2023-02-18T07:32:50.291Z,971.52
2023-02-18T07:33:50.221Z,971.51
2023-02-18T07:34:50.236Z,971.52
2023-02-18T07:35:50.360Z,971.49
2023-02-18T07:36:50.250Z,971.51
2023-02-18T07:37:50.338Z,971.5
2023-02-18T07:38:50.353Z,971.46
2023-02-18T07:39:50.169Z,971.47
2023-02-18T07:41:50.256Z,971.49
2023-02-18T07:42:50.255Z,971.5
2023-02-18T07:43:50.337Z,971.48
2023-02-18T07:45:50.329Z,971.51
2023-02-18T07:46:50.373Z,971.52
2023-02-18T07:47:50.367Z,971.49
2023-02-18T07:48:50.354Z,971.48
2023-02-18T07:51:50.261Z,971.5
2023-02-18T07:53:50.340Z,971.47
2023-02-18T07:55:50.354Z,971.48
2023-02-18T07:56:50.240Z,971.51
2023-02-18T07:57:50.406Z,971.48
2023-02-18T07:58:50.295Z,971.5
2023-02-18T07:59:50.353Z,971.51
2023-02-18T08:00:50.482Z,971.5
2023-02-18T08:02:50.328Z,971.52
2023-02-18T08:04:50.404Z,971.49
2023-02-18T08:05:50.330Z,971.51
2023-02-18T08:06:50.421Z,971.5
2023-02-18T08:07:50.398Z,971.51
2023-02-18T08:08:50.414Z,971.49
2023-02-18T08:10:50.371Z,971.51
2023-02-18T08:11:50.379Z,971.48
2023-02-18T08:12:50.427Z,971.55
2023-02-18T08:13:50.311Z,971.51
2023-02-18T08:15:50.393Z,971.47
2023-02-18T08:16:50.371Z,971.52
2023-02-18T08:17:50.446Z,971.54
2023-02-18T08:18:50.503Z,971.52
2023-02-18T08:19:50.294Z,971.57
2023-02-18T08:20:50.443Z,971.54
2023-02-18T08:22:50.328Z,971.57
2023-02-18T08:23:50.408Z,971.58
2023-02-18T08:24:50.321Z,971.59
2023-02-18T08:25:50.590Z,971.57
2023-02-18T08:27:00.130Z,971.59
2023-02-18T08:27:50.449Z,971.61
2023-02-18T08:28:50.475Z,971.6
2023-02-18T08:29:50.296Z,971.62
2023-02-18T08:30:50.481Z,971.65
2023-02-18T08:31:50.553Z,971.66
2023-02-18T08:32:50.365Z,971.65
2023-02-18T08:34:50.405Z,971.7
2023-02-18T08:35:50.373Z,971.69
2023-02-18T08:36:50.406Z,971.7
2023-02-18T08:37:51.989Z,971.66
2023-02-18T08:38:50.537Z,971.7
2023-02-18T08:39:50.539Z,971.65
2023-02-18T08:40:50.432Z,971.67
2023-02-18T08:41:50.357Z,971.65
2023-02-18T08:42:50.472Z,971.63
2023-02-18T08:43:50.355Z,971.69
2023-02-18T08:44:50.353Z,971.61
2023-02-18T08:45:50.558Z,971.67
2023-02-18T08:46:50.538Z,971.62
2023-02-18T08:48:13.565Z,971.64
2023-02-18T08:48:50.615Z,971.6
2023-02-18T08:49:50.545Z,971.59
2023-02-18T08:50:50.396Z,971.68
2023-02-18T08:51:50.477Z,971.59
2023-02-18T08:52:50.440Z,971.62
2023-02-18T08:53:50.575Z,971.68
2023-02-18T08:54:50.544Z,971.61
2023-02-18T08:55:50.489Z,971.69
2023-02-18T08:56:50.563Z,971.64
2023-02-18T08:57:50.455Z,971.7
2023-02-18T08:58:50.436Z,971.69
2023-02-18T08:59:50.621Z,971.67
2023-02-18T09:00:50.399Z,971.68
2023-02-18T09:01:50.456Z,971.67
2023-02-18T09:02:50.549Z,971.62
2023-02-18T09:03:50.543Z,971.61
2023-02-18T09:04:50.394Z,971.56
2023-02-18T09:05:50.546Z,971.58
2023-02-18T09:06:50.472Z,971.56
2023-02-18T09:07:50.473Z,971.59
2023-02-18T09:08:50.544Z,971.56
2023-02-18T09:09:50.435Z,971.57
2023-02-18T09:10:50.536Z,971.55
2023-02-18T09:11:50.486Z,971.57
2023-02-18T09:12:50.510Z,971.53
2023-02-18T09:13:50.546Z,971.54
2023-02-18T09:14:50.458Z,971.57
2023-02-18T09:16:50.694Z,971.62
2023-02-18T09:17:50.575Z,971.61
2023-02-18T09:18:50.390Z,971.63
2023-02-18T09:19:50.565Z,971.68
2023-02-18T09:20:50.542Z,971.7
2023-02-18T09:21:50.537Z,971.66
2023-02-18T09:22:50.566Z,971.68
2023-02-18T09:23:50.607Z,971.69
2023-02-18T09:24:50.513Z,971.7
2023-02-18T09:25:50.506Z,971.59
2023-02-18T09:26:50.571Z,971.58
2023-02-18T09:27:50.512Z,971.57
2023-02-18T09:28:50.566Z,971.56
2023-02-18T09:29:50.452Z,971.55
2023-02-18T09:30:50.573Z,971.51
2023-02-18T09:32:50.553Z,971.52
2023-02-18T09:33:50.534Z,971.5
2023-02-18T09:35:50.587Z,971.44
2023-02-18T09:36:50.545Z,971.46
2023-02-18T09:37:50.583Z,971.43
2023-02-18T09:38:50.460Z,971.42
2023-02-18T09:39:50.578Z,971.37
2023-02-18T09:40:50.632Z,971.39
2023-02-18T09:41:50.535Z,971.31
2023-02-18T09:42:50.474Z,971.3
2023-02-18T09:43:50.642Z,971.34
2023-02-18T09:44:50.550Z,971.31
2023-02-18T09:45:50.571Z,971.28
2023-02-18T09:46:50.646Z,971.24
2023-02-18T09:49:50.705Z,971.23
2023-02-18T09:50:50.579Z,971.24
2023-02-18T09:51:50.532Z,971.21
2023-02-18T09:52:50.666Z,971.18
2023-02-18T09:53:50.704Z,971.14
2023-02-18T09:54:50.494Z,971.11
2023-02-18T09:55:50.591Z,971.12
2023-02-18T09:56:50.634Z,971.11
2023-02-18T09:58:50.665Z,971.17
2023-02-18T09:59:50.524Z,971.13
2023-02-18T10:01:50.680Z,971.16
2023-02-18T10:02:50.539Z,971.1
2023-02-18T10:03:50.747Z,971.16
2023-02-18T10:04:50.634Z,971.15
2023-02-18T10:06:50.719Z,971.2
2023-02-18T10:07:50.607Z,971.17
2023-02-18T10:08:50.667Z,971.19
2023-02-18T10:09:50.633Z,971.2
2023-02-18T10:10:50.659Z,971.24
2023-02-18T10:11:50.567Z,971.23
2023-02-18T10:12:50.643Z,971.26
2023-02-18T10:13:50.570Z,971.24
2023-02-18T10:14:50.759Z,971.23
2023-02-18T10:15:50.606Z,971.19
2023-02-18T10:16:50.548Z,971.2
2023-02-18T10:17:50.578Z,971.17
2023-02-18T10:18:50.692Z,971.15
2023-02-18T10:19:50.635Z,971.14
2023-02-18T10:20:50.643Z,971.16
2023-02-18T10:22:50.680Z,971.11
2023-02-18T10:23:50.573Z,971.07
2023-02-18T10:24:50.676Z,971.11
2023-02-18T10:25:50.705Z,971.09
2023-02-18T10:26:50.631Z,971.1
2023-02-18T10:27:50.720Z,971.11
2023-02-18T10:28:50.681Z,971.08
2023-02-18T10:29:50.686Z,971.06
2023-02-18T10:30:50.713Z,971.08
2023-02-18T10:31:50.785Z,971.09
2023-02-18T10:32:50.625Z,971.12
2023-02-18T10:33:50.591Z,971.07
2023-02-18T10:34:50.555Z,971.06
2023-02-18T10:35:50.756Z,971.08
2023-02-18T10:37:50.678Z,971.09
2023-02-18T10:39:50.738Z,971.13
2023-02-18T10:40:50.663Z,971.18
2023-02-18T10:41:50.769Z,971.15
2023-02-18T10:42:50.675Z,971.17
2023-02-18T10:43:50.633Z,971.15
2023-02-18T10:44:50.701Z,971.13
2023-02-18T10:45:50.670Z,971.12
2023-02-18T10:46:50.726Z,971.11
2023-02-18T10:47:50.729Z,971.14
2023-02-18T10:48:50.716Z,971.13
2023-02-18T10:49:50.728Z,971.16
2023-02-18T10:50:50.759Z,971.12
2023-02-18T10:51:50.712Z,971.11
2023-02-18T10:53:50.760Z,971.15
2023-02-18T10:54:50.688Z,971.13
2023-02-18T10:55:50.656Z,971.06
2023-02-18T10:56:50.734Z,971.03
2023-02-18T10:58:50.854Z,971.07
2023-02-18T10:59:50.754Z,971.04
2023-02-18T11:00:50.785Z,970.97
2023-02-18T11:01:50.799Z,970.99
2023-02-18T11:03:50.821Z,971
2023-02-18T11:04:50.713Z,970.98
2023-02-18T11:05:50.809Z,970.99
2023-02-18T11:06:50.677Z,970.97
2023-02-18T11:08:50.700Z,971.01
2023-02-18T11:09:50.698Z,970.99
2023-02-18T11:10:50.801Z,971.01
2023-02-18T11:11:53.772Z,970.99
2023-02-18T11:12:50.921Z,970.95
2023-02-18T11:14:50.829Z,970.96
2023-02-18T11:15:50.855Z,970.97
2023-02-18T11:16:50.789Z,970.96
2023-02-18T11:17:50.788Z,970.94
2023-02-18T11:18:50.829Z,970.95
2023-02-18T11:19:50.813Z,970.96
2023-02-18T11:20:50.831Z,970.92
2023-02-18T11:21:50.736Z,970.96
2023-02-18T11:22:51.588Z,970.94
2023-02-18T11:23:50.798Z,970.92
2023-02-18T11:25:50.735Z,970.91
2023-02-18T11:26:50.763Z,970.89
2023-02-18T11:28:50.906Z,970.93
2023-02-18T11:29:50.750Z,970.86
2023-02-18T11:30:50.778Z,970.89
2023-02-18T11:31:50.973Z,970.86
2023-02-18T11:32:50.694Z,970.85
2023-02-18T11:33:50.815Z,970.87
2023-02-18T11:34:50.790Z,970.82
2023-02-18T11:35:50.820Z,970.8
2023-02-18T11:36:50.881Z,970.74
2023-02-18T11:37:50.850Z,970.73
2023-02-18T11:38:50.912Z,970.66
2023-02-18T11:39:50.819Z,970.65
2023-02-18T11:40:50.749Z,970.67
2023-02-18T11:41:50.870Z,970.61
2023-02-18T11:42:50.814Z,970.59
2023-02-18T11:43:50.894Z,970.58
2023-02-18T11:44:50.995Z,970.54
2023-02-18T11:45:50.925Z,970.49
2023-02-18T11:46:50.864Z,970.48
2023-02-18T11:47:50.764Z,970.46
2023-02-18T11:48:50.840Z,970.45
2023-02-18T11:49:50.742Z,970.42
2023-02-18T11:50:50.812Z,970.5
2023-02-18T11:51:50.825Z,970.43
2023-02-18T11:52:50.813Z,970.45
2023-02-18T11:53:50.827Z,970.42
2023-02-18T11:54:51.034Z,970.48
2023-02-18T11:57:50.897Z,970.47
2023-02-18T11:58:50.862Z,970.43
2023-02-18T11:59:50.838Z,970.42
2023-02-18T12:00:50.913Z,970.37
2023-02-18T12:01:50.896Z,970.4
2023-02-18T12:02:50.884Z,970.38
2023-02-18T12:04:50.915Z,970.3
2023-02-18T12:05:50.904Z,970.35
2023-02-18T12:06:51.012Z,970.31
2023-02-18T12:07:50.933Z,970.25
2023-02-18T12:08:50.836Z,970.29
2023-02-18T12:09:50.890Z,970.28
2023-02-18T12:10:50.945Z,970.25
2023-02-18T12:11:50.860Z,970.22
2023-02-18T12:12:50.884Z,970.17
2023-02-18T12:13:50.903Z,970.2
2023-02-18T12:14:50.991Z,970.18
2023-02-18T12:15:50.905Z,970.14
2023-02-18T12:17:51.004Z,970.15
2023-02-18T12:18:50.899Z,970.05
2023-02-18T12:19:50.880Z,970.02
2023-02-18T12:20:50.983Z,970.01
2023-02-18T12:21:50.935Z,969.96
2023-02-18T12:22:50.940Z,969.99
2023-02-18T12:23:50.953Z,969.94
2023-02-18T12:24:50.982Z,969.93
2023-02-18T12:25:50.985Z,969.92
2023-02-18T12:26:50.901Z,969.9
2023-02-18T12:27:50.926Z,969.83
2023-02-18T12:28:50.997Z,969.78
2023-02-18T12:29:50.917Z,969.81
2023-02-18T12:30:51.025Z,969.79
2023-02-18T12:31:50.923Z,969.82
2023-02-18T12:32:50.935Z,969.77
2023-02-18T12:33:50.938Z,969.76
2023-02-18T12:34:50.984Z,969.74
2023-02-18T12:35:50.930Z,969.76
2023-02-18T12:36:50.946Z,969.82
2023-02-18T12:37:51.071Z,969.78
2023-02-18T12:38:51.074Z,969.73
2023-02-18T12:39:50.953Z,969.67
2023-02-18T12:41:51.018Z,969.72
2023-02-18T12:42:50.908Z,969.68
2023-02-18T12:43:51.067Z,969.67
2023-02-18T12:44:51.077Z,969.6
2023-02-18T12:45:50.973Z,969.54
2023-02-18T12:46:51.088Z,969.48
2023-02-18T12:48:51.005Z,969.47
2023-02-18T12:49:51.026Z,969.5
2023-02-18T12:52:51.039Z,969.43
2023-02-18T12:53:51.016Z,969.5
2023-02-18T12:54:51.017Z,969.44
2023-02-18T12:55:51.088Z,969.45
2023-02-18T12:56:51.126Z,969.51
2023-02-18T12:57:51.073Z,969.43
2023-02-18T12:59:51.064Z,969.39
2023-02-18T13:00:50.981Z,969.38
2023-02-18T13:01:51.112Z,969.33
2023-02-18T13:03:50.994Z,969.32
2023-02-18T13:04:51.080Z,969.27
2023-02-18T13:05:51.045Z,969.25
2023-02-18T13:06:50.993Z,969.24
2023-02-18T13:08:51.062Z,969.23
2023-02-18T13:09:51.132Z,969.26
2023-02-18T13:10:51.080Z,969.16
2023-02-18T13:11:51.046Z,969.18
2023-02-18T13:12:51.045Z,969.2
2023-02-18T13:13:51.081Z,969.13
2023-02-18T13:14:51.080Z,969.09
2023-02-18T13:15:51.107Z,969.11
2023-02-18T13:16:51.086Z,969.06
2023-02-18T13:17:51.057Z,969.08
2023-02-18T13:18:51.153Z,969.1
2023-02-18T13:19:51.175Z,969.01
2023-02-18T13:20:51.054Z,969.03
2023-02-18T13:21:51.090Z,969
2023-02-18T13:22:51.086Z,969.02
2023-02-18T13:23:51.113Z,969.01
2023-02-18T13:25:51.034Z,968.98
2023-02-18T13:26:51.096Z,968.95
2023-02-18T13:27:51.131Z,968.93
2023-02-18T13:28:51.038Z,968.89
2023-02-18T13:29:51.188Z,968.91
2023-02-18T13:30:51.231Z,968.86
2023-02-18T13:32:51.120Z,968.87
2023-02-18T13:33:51.165Z,968.85
2023-02-18T13:34:51.043Z,968.84
2023-02-18T13:35:51.216Z,968.85
2023-02-18T13:36:51.144Z,968.87
2023-02-18T13:37:51.110Z,968.83
2023-02-18T13:38:51.121Z,968.8
2023-02-18T13:39:51.268Z,968.84
2023-02-18T13:40:51.123Z,968.87
2023-02-18T13:41:51.070Z,968.88
2023-02-18T13:42:51.078Z,968.85
2023-02-18T13:44:51.194Z,968.84
2023-02-18T13:45:51.327Z,968.81
2023-02-18T13:46:51.101Z,968.76
2023-02-18T13:47:51.215Z,968.72
2023-02-18T13:48:52.703Z,968.67
2023-02-18T13:49:51.402Z,968.68
2023-02-18T13:50:51.132Z,968.67
2023-02-18T13:51:51.221Z,968.66
2023-02-18T13:52:51.153Z,968.67
2023-02-18T13:53:51.073Z,968.66
2023-02-18T13:54:52.024Z,968.68
2023-02-18T13:55:51.105Z,968.67
2023-02-18T13:56:51.226Z,968.66
2023-02-18T13:57:51.176Z,968.63
2023-02-18T13:58:51.182Z,968.66
2023-02-18T13:59:51.111Z,968.64
2023-02-18T14:00:51.168Z,968.65
2023-02-18T14:01:51.148Z,968.6
2023-02-18T14:02:51.332Z,968.61
2023-02-18T14:04:51.132Z,968.62
2023-02-18T14:05:51.230Z,968.63
2023-02-18T14:06:51.193Z,968.57
2023-02-18T14:07:51.259Z,968.6
2023-02-18T14:08:51.253Z,968.61
2023-02-18T14:09:51.148Z,968.63
2023-02-18T14:10:51.144Z,968.62
2023-02-18T14:11:51.270Z,968.56
2023-02-18T14:13:51.270Z,968.53
2023-02-18T14:14:51.147Z,968.49
2023-02-18T14:15:51.285Z,968.48
2023-02-18T14:16:51.192Z,968.41
2023-02-18T14:17:51.249Z,968.37
2023-02-18T14:18:51.228Z,968.38
2023-02-18T14:20:51.364Z,968.36
2023-02-18T14:21:51.203Z,968.33
2023-02-18T14:22:51.290Z,968.31
2023-02-18T14:23:51.269Z,968.32
2023-02-18T14:24:51.277Z,968.34
2023-02-18T14:25:51.232Z,968.37
2023-02-18T14:26:51.261Z,968.35
2023-02-18T14:27:51.245Z,968.36
2023-02-18T14:28:51.310Z,968.32
2023-02-18T14:29:51.209Z,968.3
2023-02-18T14:30:51.374Z,968.32
2023-02-18T14:33:51.349Z,968.28
2023-02-18T14:34:51.311Z,968.22
2023-02-18T14:35:51.198Z,968.23
2023-02-18T14:36:51.276Z,968.21
2023-02-18T14:37:51.337Z,968.22
2023-02-18T14:38:51.214Z,968.26
2023-02-18T14:39:51.268Z,968.21
2023-02-18T14:40:51.277Z,968.24